createdAt,value
2023-04-12T00:03:03.440Z,1.50
2023-04-12T00:06:07.468Z,1.55
2023-04-12T00:09:10.158Z,1.55
2023-04-12T00:12:13.064Z,1.40
2023-04-12T00:15:15.839Z,1.62
2023-04-12T00:18:18.648Z,1.52
2023-04-12T00:21:23.839Z,1.10
2023-04-12T00:24:27.339Z,1.95
2023-04-12T00:27:30.031Z,1.27
2023-04-12T00:30:33.129Z,1.80
2023-04-12T00:33:36.213Z,1.42
2023-04-12T00:36:39.067Z,1.40
2023-04-12T00:39:41.737Z,1.58
2023-04-12T00:42:45.117Z,1.50
2023-04-12T00:45:48.148Z,1.45
2023-04-12T00:48:51.068Z,1.80
2023-04-12T00:51:54.218Z,1.80
2023-04-12T00:54:57.356Z,1.42
2023-04-12T00:58:00.070Z,1.57
2023-04-12T01:01:03.163Z,1.73
2023-04-12T01:04:06.166Z,1.58
2023-04-12T01:07:29.197Z,1.50
2023-04-12T01:10:38.101Z,1.60
2023-04-12T01:14:03.516Z,1.90
2023-04-12T01:17:07.511Z,1.55
2023-04-12T01:20:19.949Z,1.58
2023-04-12T01:23:43.680Z,1.90
2023-04-12T01:26:48.181Z,1.83
2023-04-12T01:29:51.659Z,1.43
2023-04-12T01:32:56.190Z,1.65
2023-04-12T01:36:00.994Z,1.70
2023-04-12T01:39:05.138Z,1.42
2023-04-12T01:42:07.820Z,1.83
2023-04-12T01:45:11.356Z,1.50
2023-04-12T01:48:13.987Z,1.80
2023-04-12T01:51:24.169Z,1.80
2023-04-12T01:54:28.550Z,1.52
2023-04-12T01:57:32.072Z,1.80
2023-04-12T02:00:36.074Z,1.77
2023-04-12T02:03:42.831Z,2.12
2023-04-12T02:06:47.190Z,2.05
2023-04-12T02:09:49.993Z,2.30
2023-04-12T02:13:01.427Z,1.87
2023-04-12T02:16:05.739Z,2.17
2023-04-12T02:19:10.670Z,1.90
2023-04-12T02:22:13.333Z,2.45
2023-04-12T02:25:18.187Z,1.90
2023-04-12T02:28:23.170Z,2.50
2023-04-12T02:31:26.178Z,2.33
2023-04-12T02:34:34.176Z,2.40
2023-04-12T02:37:38.313Z,2.50
2023-04-12T02:40:42.144Z,2.28
2023-04-12T02:43:46.141Z,2.12
2023-04-12T02:46:48.869Z,2.20
2023-04-12T02:49:51.921Z,2.42
2023-04-12T02:52:56.458Z,2.15
2023-04-12T02:56:01.329Z,2.45
2023-04-12T02:59:04.161Z,2.40
2023-04-12T03:02:07.854Z,2.27
2023-04-12T03:05:10.587Z,2.25
2023-04-12T03:08:14.268Z,2.42
2023-04-12T03:11:17.576Z,2.45
2023-04-12T03:14:21.751Z,2.35
2023-04-12T03:17:24.980Z,2.30
2023-04-12T03:20:28.907Z,2.20
2023-04-12T03:23:31.957Z,2.40
2023-04-12T03:26:36.195Z,2.60
2023-04-12T03:29:39.496Z,2.37
2023-04-12T03:32:42.898Z,2.60
2023-04-12T03:35:45.955Z,3.12
2023-04-12T03:38:49.368Z,2.72
2023-04-12T03:41:53.267Z,2.70
2023-04-12T03:44:57.515Z,2.75
2023-04-12T03:48:00.201Z,2.53
2023-04-12T03:51:07.890Z,2.40
2023-04-12T03:54:15.734Z,2.92
2023-04-12T03:57:18.976Z,2.83
2023-04-12T04:00:22.269Z,2.30
2023-04-12T04:03:35.385Z,2.80
2023-04-12T04:06:38.940Z,2.65
2023-04-12T04:09:41.942Z,3.08
2023-04-12T04:12:45.225Z,3.20
2023-04-12T04:15:51.658Z,2.65
2023-04-12T04:18:55.016Z,2.30
2023-04-12T04:21:59.141Z,2.42
2023-04-12T04:25:03.080Z,2.72
2023-04-12T04:28:07.774Z,2.22
2023-04-12T04:31:12.177Z,2.42
2023-04-12T04:34:16.408Z,2.27
2023-04-12T04:37:19.159Z,2.55
2023-04-12T04:40:24.126Z,2.37
2023-04-12T04:43:26.764Z,2.12
2023-04-12T04:46:32.175Z,2.03
2023-04-12T04:49:37.145Z,2.50
2023-04-12T04:52:40.937Z,2.25
2023-04-12T04:55:43.640Z,2.17
2023-04-12T04:58:46.686Z,1.83
2023-04-12T05:01:52.259Z,2.00
2023-04-12T05:04:56.522Z,1.50
2023-04-12T05:07:59.641Z,1.70
2023-04-12T05:11:03.916Z,1.70
2023-04-12T05:14:07.166Z,1.70
2023-04-12T05:17:10.878Z,1.40
2023-04-12T05:20:13.387Z,1.50
2023-04-12T05:23:17.411Z,1.20
2023-04-12T05:26:21.630Z,1.55
2023-04-12T05:29:24.766Z,1.80
2023-04-12T05:32:28.038Z,1.42
2023-04-12T05:35:31.551Z,1.67
2023-04-12T05:38:34.310Z,2.10
2023-04-12T05:41:37.473Z,1.60
2023-04-12T05:44:40.095Z,1.37
2023-04-12T05:47:43.489Z,1.70
2023-04-12T05:50:53.645Z,1.30
2023-04-12T05:53:56.777Z,1.23
2023-04-12T05:57:00.283Z,1.20
2023-04-12T06:00:07.096Z,1.45
2023-04-12T06:03:15.710Z,1.55
2023-04-12T06:06:18.761Z,1.40
2023-04-12T06:09:22.337Z,1.10
2023-04-12T06:12:25.381Z,1.30
2023-04-12T06:15:28.163Z,1.52
2023-04-12T06:18:31.311Z,1.30
2023-04-12T06:21:34.180Z,1.40
2023-04-12T06:24:37.462Z,1.37
2023-04-12T06:27:40.348Z,1.40
2023-04-12T06:30:43.271Z,1.30
2023-04-12T06:33:46.048Z,1.12
2023-04-12T06:36:48.957Z,1.17
2023-04-12T06:39:52.603Z,1.10
2023-04-12T06:42:55.317Z,1.12
2023-04-12T06:45:58.378Z,1.42
2023-04-12T06:49:01.452Z,1.20
2023-04-12T06:52:04.664Z,1.60
2023-04-12T06:55:08.008Z,1.40
2023-04-12T06:58:10.926Z,1.10
2023-04-12T07:01:14.620Z,1.70
2023-04-12T07:04:17.243Z,1.48
2023-04-12T07:07:23.042Z,1.30
2023-04-12T07:10:27.445Z,1.50
2023-04-12T07:13:31.182Z,1.98
2023-04-12T07:16:34.132Z,1.90
2023-04-12T07:19:37.044Z,1.90
2023-04-12T07:22:39.944Z,1.47
2023-04-12T07:25:43.445Z,1.60
2023-04-12T07:28:46.320Z,1.98
2023-04-12T07:31:49.333Z,1.90
2023-04-12T07:34:53.152Z,1.50
2023-04-12T07:37:56.042Z,1.60
2023-04-12T07:40:58.805Z,1.70
2023-04-12T07:44:01.875Z,1.90
2023-04-12T07:47:04.399Z,1.98
2023-04-12T07:50:07.548Z,1.37
2023-04-12T07:53:21.042Z,1.67
2023-04-12T07:56:24.027Z,1.83
2023-04-12T07:59:27.008Z,1.60
2023-04-12T08:02:29.942Z,1.77
2023-04-12T08:05:32.978Z,1.30
2023-04-12T08:08:35.980Z,1.70
2023-04-12T08:11:38.878Z,1.90
2023-04-12T08:14:41.704Z,1.67
2023-04-12T08:17:44.616Z,2.25
2023-04-12T08:20:49.203Z,1.90
2023-04-12T08:23:52.408Z,1.87
2023-04-12T08:26:55.544Z,1.83
2023-04-12T08:29:58.315Z,2.05
2023-04-12T08:33:01.018Z,2.17
2023-04-12T08:36:04.187Z,2.20
2023-04-12T08:39:06.971Z,2.23
2023-04-12T08:42:11.134Z,1.67
2023-04-12T08:45:14.160Z,1.95
2023-04-12T08:48:18.273Z,1.55
2023-04-12T08:51:21.642Z,1.77
2023-04-12T08:54:25.185Z,1.67
2023-04-12T08:57:28.384Z,1.40
2023-04-12T09:00:32.443Z,1.40
2023-04-12T09:03:36.804Z,1.48
2023-04-12T09:06:39.826Z,1.70
2023-04-12T09:09:46.755Z,1.90
2023-04-12T09:12:51.024Z,1.73
2023-04-12T09:15:55.749Z,1.60
2023-04-12T09:19:02.538Z,1.92
2023-04-12T09:22:05.172Z,1.60
2023-04-12T09:25:08.180Z,1.73
2023-04-12T09:28:25.756Z,1.98
2023-04-12T09:31:28.783Z,1.85
2023-04-12T09:34:32.888Z,1.55
2023-04-12T09:37:35.679Z,1.90
2023-04-12T09:40:38.972Z,1.43
2023-04-12T09:43:42.121Z,1.70
2023-04-12T09:46:52.203Z,1.67
2023-04-12T09:49:55.132Z,1.60
2023-04-12T09:52:58.577Z,1.65
2023-04-12T09:56:03.447Z,1.40
2023-04-12T09:59:07.230Z,1.40
2023-04-12T10:02:18.206Z,1.48
2023-04-12T10:05:23.428Z,1.77
2023-04-12T10:08:26.764Z,1.40
2023-04-12T10:11:29.717Z,1.10
2023-04-12T10:14:32.392Z,1.00
2023-04-12T10:17:35.961Z,1.30
2023-04-12T10:20:40.712Z,1.17
2023-04-12T10:23:45.201Z,1.40
2023-04-12T10:26:50.351Z,1.10
2023-04-12T10:29:53.346Z,1.00
2023-04-12T10:33:05.522Z,1.08
2023-04-12T10:36:12.282Z,0.80
2023-04-12T10:39:15.332Z,1.50
2023-04-12T10:42:25.307Z,1.00
2023-04-12T10:45:37.256Z,0.80
2023-04-12T10:48:51.986Z,0.70
2023-04-12T10:52:00.960Z,0.90
2023-04-12T10:55:30.205Z,0.80
2023-04-12T10:58:47.907Z,0.73
2023-04-12T11:02:10.553Z,1.10
2023-04-12T11:05:14.725Z,0.60
2023-04-12T11:08:23.577Z,0.80
2023-04-12T11:11:28.144Z,0.80
2023-04-12T11:14:35.532Z,0.80
2023-04-12T11:17:38.253Z,0.90
2023-04-12T11:20:41.405Z,0.50
2023-04-12T11:23:44.004Z,0.65
2023-04-12T11:26:47.014Z,0.70
2023-04-12T11:29:57.604Z,0.60
2023-04-12T11:33:00.687Z,1.50
2023-04-12T11:36:07.205Z,0.73
2023-04-12T11:39:10.379Z,1.10
2023-04-12T11:42:23.299Z,0.90
2023-04-12T11:45:26.668Z,0.80
2023-04-12T11:48:29.628Z,0.80
2023-04-12T11:51:32.882Z,0.90
2023-04-12T11:54:35.523Z,0.90
2023-04-12T11:57:38.859Z,0.98
2023-04-12T12:00:42.788Z,0.80
2023-04-12T12:03:45.919Z,0.90
2023-04-12T12:06:49.138Z,0.80
2023-04-12T12:09:52.260Z,0.77
2023-04-12T12:12:58.240Z,0.57
2023-04-12T12:16:01.160Z,0.73
2023-04-12T12:19:05.094Z,1.30
2023-04-12T12:22:18.006Z,1.00
2023-04-12T12:25:20.670Z,0.90
2023-04-12T12:28:27.182Z,1.20
2023-04-12T12:31:29.864Z,1.10
2023-04-12T12:34:36.354Z,0.90
2023-04-12T12:37:48.819Z,0.80
2023-04-12T12:40:52.987Z,0.80
2023-04-12T12:43:56.254Z,1.00
2023-04-12T12:47:10.261Z,0.83
2023-04-12T12:50:17.953Z,0.90
2023-04-12T12:53:22.611Z,0.50
2023-04-12T12:56:26.818Z,0.82
2023-04-12T12:59:29.649Z,0.50
2023-04-12T13:02:32.443Z,0.93
2023-04-12T13:05:35.930Z,0.70
2023-04-12T13:08:38.680Z,0.80
2023-04-12T13:11:41.745Z,0.80
2023-04-12T13:14:45.195Z,0.60
2023-04-12T13:17:52.825Z,0.80
2023-04-12T13:20:55.767Z,1.00
2023-04-12T13:23:58.668Z,0.73
2023-04-12T13:27:01.120Z,0.77
2023-04-12T13:30:05.193Z,0.90
2023-04-12T13:33:09.128Z,0.73
2023-04-12T13:36:11.995Z,0.70
2023-04-12T13:39:14.659Z,1.00
2023-04-12T13:42:17.973Z,1.00
2023-04-12T13:45:20.826Z,0.73
2023-04-12T13:48:24.069Z,0.83
2023-04-12T13:51:26.739Z,1.15
2023-04-12T13:54:30.599Z,0.95
2023-04-12T13:57:33.079Z,1.20
2023-04-12T14:00:36.105Z,1.42
2023-04-12T14:03:39.850Z,1.20
2023-04-12T14:06:42.830Z,1.00
2023-04-12T14:09:45.701Z,1.50
2023-04-12T14:12:48.262Z,0.90
2023-04-12T14:15:51.789Z,1.23
2023-04-12T14:18:54.358Z,13.33
2023-04-12T14:21:57.469Z,4.90
2023-04-12T14:25:00.113Z,2.78
2023-04-12T14:28:03.329Z,2.50
2023-04-12T14:31:06.692Z,1.83
2023-04-12T14:34:10.756Z,1.87
2023-04-12T14:37:13.276Z,1.33
2023-04-12T14:40:18.920Z,1.20
2023-04-12T14:43:21.490Z,1.35
2023-04-12T14:46:25.701Z,1.20
2023-04-12T14:49:32.455Z,1.07
2023-04-12T14:52:36.253Z,1.10
2023-04-12T14:55:38.918Z,1.30
2023-04-12T14:58:41.883Z,1.15
2023-04-12T15:01:44.848Z,1.10
2023-04-12T15:04:49.476Z,1.00
2023-04-12T15:07:52.150Z,1.05
2023-04-12T15:10:55.156Z,1.20
2023-04-12T15:13:58.021Z,1.30
2023-04-12T15:17:01.111Z,0.88
2023-04-12T15:20:11.653Z,1.10
2023-04-12T15:23:15.930Z,1.08
2023-04-12T15:26:18.494Z,1.15
2023-04-12T15:29:26.849Z,1.35
2023-04-12T15:32:29.686Z,1.45
2023-04-12T15:35:32.837Z,1.60
2023-04-12T15:38:42.535Z,1.20
2023-04-12T15:41:45.564Z,1.30
2023-04-12T15:44:48.284Z,0.93
2023-04-12T15:47:51.180Z,1.12
2023-04-12T15:50:56.594Z,1.30
2023-04-12T15:54:00.176Z,1.20
2023-04-12T15:57:09.592Z,1.10
2023-04-12T16:00:26.897Z,1.10
2023-04-12T16:03:31.625Z,1.80
2023-04-12T16:06:35.819Z,1.30
2023-04-12T16:09:39.832Z,1.12
2023-04-12T16:12:42.310Z,1.15
2023-04-12T16:15:45.855Z,1.52
2023-04-12T16:18:49.153Z,1.10
2023-04-12T16:21:52.576Z,1.00
2023-04-12T16:24:56.543Z,2.30
2023-04-12T16:28:02.609Z,1.30
2023-04-12T16:31:07.258Z,1.00
2023-04-12T16:34:11.338Z,1.40
2023-04-12T16:37:17.862Z,1.20
2023-04-12T16:40:22.732Z,1.37
2023-04-12T16:43:26.610Z,1.25
2023-04-12T16:46:31.125Z,3.75
2023-04-12T16:49:34.514Z,4.10
2023-04-12T16:52:41.391Z,2.30
2023-04-12T16:55:47.636Z,5.03
2023-04-12T16:58:55.274Z,6.00
2023-04-12T17:02:01.307Z,5.47
2023-04-12T17:05:06.178Z,5.32
2023-04-12T17:08:09.888Z,5.13
2023-04-12T17:11:13.694Z,4.05
2023-04-12T17:14:16.791Z,3.37
2023-04-12T17:17:20.036Z,2.75
2023-04-12T17:20:23.294Z,3.67
2023-04-12T17:23:27.728Z,3.50
2023-04-12T17:26:31.641Z,3.75
2023-04-12T17:29:35.100Z,5.12
2023-04-12T17:32:39.205Z,3.60
2023-04-12T17:35:42.498Z,3.10
2023-04-12T17:38:45.513Z,3.03
2023-04-12T17:41:49.231Z,3.50
2023-04-12T17:44:52.202Z,3.60
2023-04-12T17:47:55.276Z,2.42
2023-04-12T17:50:59.097Z,2.00
2023-04-12T17:54:03.656Z,2.10
2023-04-12T17:57:06.297Z,1.62
2023-04-12T18:00:12.020Z,2.03
2023-04-12T18:03:15.908Z,1.40
2023-04-12T18:06:20.564Z,1.67
2023-04-12T18:09:27.099Z,3.07
2023-04-12T18:12:30.242Z,4.07
2023-04-12T18:15:33.400Z,5.07
2023-04-12T18:18:36.892Z,5.05
2023-04-12T18:21:40.039Z,4.07
2023-04-12T18:24:43.689Z,3.63
2023-04-12T18:27:49.732Z,10.35
2023-04-12T18:30:55.493Z,9.93
2023-04-12T18:34:00.113Z,10.68
2023-04-12T18:37:06.009Z,7.50
2023-04-12T18:40:10.454Z,4.77
2023-04-12T18:43:13.594Z,3.67
2023-04-12T18:46:17.779Z,2.62
2023-04-12T18:49:22.038Z,1.90
2023-04-12T18:52:25.675Z,1.90
2023-04-12T18:55:28.948Z,2.00
2023-04-12T19:01:41.628Z,3.53
2023-04-12T19:04:44.421Z,6.10
2023-04-12T19:07:48.721Z,6.20
2023-04-12T19:10:52.213Z,5.33
2023-04-12T19:13:59.751Z,4.55
2023-04-12T19:17:02.942Z,4.25
2023-04-12T19:20:08.112Z,3.72
2023-04-12T19:23:11.777Z,3.25
2023-04-12T19:26:17.049Z,2.50
2023-04-12T19:29:21.091Z,2.10
2023-04-12T19:32:24.897Z,1.75
2023-04-12T19:35:32.691Z,2.20
2023-04-12T19:38:41.339Z,3.97
2023-04-12T19:41:44.336Z,5.83
2023-04-12T19:44:47.538Z,6.05
2023-04-12T19:47:51.936Z,5.90
2023-04-12T19:50:55.286Z,6.47
2023-04-12T19:53:58.322Z,6.53
2023-04-12T19:57:05.143Z,5.90
2023-04-12T20:00:12.821Z,3.60
2023-04-12T20:03:16.562Z,2.65
2023-04-12T20:06:19.219Z,2.62
2023-04-12T20:09:23.770Z,2.10
2023-04-12T20:12:26.637Z,1.83
2023-04-12T20:15:29.940Z,2.03
2023-04-12T20:18:32.684Z,2.10
2023-04-12T20:21:35.902Z,2.00
2023-04-12T20:24:38.424Z,1.73
2023-04-12T20:27:41.264Z,1.70
2023-04-12T20:30:46.946Z,2.15
2023-04-12T20:33:50.217Z,1.95
2023-04-12T20:36:55.446Z,1.50
2023-04-12T20:40:01.791Z,1.52
2023-04-12T20:43:05.917Z,1.80
2023-04-12T20:46:15.591Z,1.70
2023-04-12T20:49:20.721Z,1.83
2023-04-12T20:52:23.753Z,1.85
2023-04-12T20:55:32.512Z,1.70
2023-04-12T20:58:36.336Z,1.50
2023-04-12T21:01:39.098Z,1.70
2023-04-12T21:04:42.065Z,1.77
2023-04-12T21:07:46.627Z,1.67
2023-04-12T21:10:50.873Z,2.17
2023-04-12T21:13:53.461Z,2.40
2023-04-12T21:16:56.374Z,1.50
2023-04-12T21:19:59.185Z,1.70
2023-04-12T21:23:04.287Z,1.50
2023-04-12T21:26:08.475Z,1.62
2023-04-12T21:29:11.735Z,1.60
2023-04-12T21:32:14.415Z,1.60
2023-04-12T21:35:18.251Z,1.70
2023-04-12T21:38:22.319Z,1.75
2023-04-12T21:41:25.275Z,1.80
2023-04-12T21:44:27.910Z,1.63
2023-04-12T21:47:31.871Z,1.87
2023-04-12T21:50:34.479Z,1.73
2023-04-12T21:53:37.335Z,1.60
2023-04-12T21:56:40.065Z,1.40
2023-04-12T21:59:43.850Z,1.70
2023-04-12T22:02:46.919Z,1.42
2023-04-12T22:06:03.026Z,1.87
2023-04-12T22:09:07.290Z,2.25
2023-04-12T22:12:12.120Z,2.15
2023-04-12T22:15:16.450Z,2.00
2023-04-12T22:18:19.593Z,2.28
2023-04-12T22:21:22.849Z,2.10
2023-04-12T22:24:26.381Z,2.20
2023-04-12T22:27:29.851Z,2.08
2023-04-12T22:30:32.911Z,2.40
2023-04-12T22:33:37.058Z,2.15
2023-04-12T22:36:42.068Z,2.28
2023-04-12T22:39:46.494Z,2.37
2023-04-12T22:42:49.307Z,2.20
2023-04-12T22:45:54.067Z,2.53
2023-04-12T22:48:57.033Z,2.67
2023-04-12T22:51:59.622Z,2.90
2023-04-12T22:55:02.489Z,2.58
2023-04-12T22:58:07.170Z,2.08
2023-04-12T23:01:10.930Z,2.03
2023-04-12T23:04:15.999Z,2.37
2023-04-12T23:07:18.938Z,2.22
2023-04-12T23:10:22.492Z,2.37
2023-04-12T23:13:25.456Z,2.45
2023-04-12T23:16:29.545Z,2.50
2023-04-12T23:19:33.229Z,2.30
2023-04-12T23:22:55.760Z,2.20
2023-04-12T23:26:00.968Z,2.05
2023-04-12T23:29:04.245Z,1.77
2023-04-12T23:32:07.044Z,2.10
2023-04-12T23:35:10.001Z,2.05
2023-04-12T23:38:23.300Z,2.72
2023-04-12T23:41:27.149Z,1.80
2023-04-12T23:44:30.681Z,2.42
2023-04-12T23:47:33.424Z,2.10
2023-04-12T23:50:36.704Z,1.87
2023-04-12T23:53:39.461Z,2.03
2023-04-12T23:56:42.319Z,2.25
2023-04-12T23:59:44.866Z,2.42
